Airfield :
LOGIN :

Register | Disclaimer

   EN    FR    IT 

 










Legend :    VFR   Marginal VFR   IFR   Intensive IFR   Very Intensive IFR
Visi :
Ceiling :
>= 8 km
>= 3000ft
5 to 8 km
1000 to 3000 ft
1500m to 5 km
500 to 1000 ft
800 to 1500m
200 to 500 ft
< 800m
< 200 ft
Symbols :   Thunderstorms  Fog  Heavy snow  Heavy precipitations  Wind > 20 kt
SIGMETs :     Misc.  Thunderstorms  Icing  Turbulence  Mountain Waves  Volcanic Ashes







- Airport Elevation : 236 ft
- IATA code : MMX


ESMS - Malmö Sturup

CURRENT METAR :
  • 152020Z 12011KT 9999 OVC047 17/13 Q1011

EXPIRED METARs :
  • 151950Z 11014KT 9999 OVC049 17/13 Q1011
  • 151920Z 10017KT 9999 BKN049 17/13 Q1010
  • 151850Z 11016KT 9999 -RA BKN049 17/14 Q1010
  • 151820Z 10017KT 9999 BKN047 17/14 Q1010
  • 151750Z 09017KT 9999 BKN055CB 17/14 Q1010

TAF TAF ESMS
Valid from the 15 at 18:00 until the 16 at 18:00 UTC


151710Z 1518/1618 10015KT 9999 FEW040
TEMPO 1518/1520 06025G38KT 2500 TSRA BKN012 BKN030CB
BECMG 1520/1523 VRB03KT
TEMPO 1523/1610 2000 BR BKN004
BECMG 1606/1609 30014KT
No reported NOTAMs for that airfield.



MET'MAP, your aeronautical weather chart ! - Copyright ORBIFLY December 2007 - Disclaimer

ORBIFLY MET'MAP TEAM :

Programming & Development : Alexandra Zaïnal
Concept & Development : Baudouin d'Aumeries
Co-Development & Prog : Marc-Olivier Méhu
Technical & hardware support : Manuel Goepfert

Contact : metmap@orbifly.com




SOURCES & CREDITS :

   NOAA